Архив погоды в Екатеринбурге

Метеограмма Екатеринбург
Среда, 19 Сентября
Время местн. Темп Ветер Видим Явления Облачность нижн/средн/верх Атм. давл. Влжн Точка росы ВНГО R Сост. почвы Tg s
Напр Скр Прв ур.ст ур.м изм
11:00 +14.7° В,Ю-В 3 - 50 км - преимущественно облачно 726 751 -1.3 50% +4.5° 1 км - - - -
08:00 +13.9° В,Ю-В 4 - 20 км - облачно 728 752 -1.7 49% +3.3° 1.5 км 0 Влажная (без луж) - -
05:00 +15.1° Ю,Ю-В 2 - 10 км - переменная облачность 729 754 -1.7 44% +2.9° 1.5 км - - - -
02:00 +16.9° Ю-В 4 - 10 км - переменная облачность 731 756 -1.6 40% +3.1° 1.5 км - - - -
Вторник, 18 Сентября
Время местн. Темп Ветер Видим Явления Облачность нижн/средн/верх Атм. давл. Влжн Точка росы ВНГО R Сост. почвы Tg s
Напр Скр Прв ур.ст ур.м изм
23:00 +16.7° Ю-В 3 - 10 км - облачно с прояснениями 733 757 -1.1 48% +5.6° 1.5 км - - - -
20:00 +18.1° Ю,Ю-В 2 - 10 км - преимущественно облачно 734 758 -0.4 50% +7.4° 1.5 км 0 - - -
17:00 +18.5° Ю-В 3 - 20 км - облачно 734 759 -1.2 53% +8.7° 1.5 км - - - -
14:00 +16.6° Ю-В 2 - 10 км - преимущественно облачно 735 760 -0.7 59% +8.5° 1.5 км - - - -
11:00 +15.7° В 1 - 10 км - облачно 736 761 -0.5 59% +7.8° 1 км - - - -
08:00 +12.8° штиль 0 - 50 км - облачно 736 761 +0.7 72% +7.8° 1 км 0 Влажная (без луж) - -
05:00 +13.5° В,Ю-В 2 - 10 км - облачно 736 761 -0.7 67% +7.4° 1 км - - - -
02:00 +15.1° Ю-В 2 - 10 км - облачно 736 761 +0.1 59% +7.1° - - - - -
Понедельник, 17 Сентября
Время местн. Темп Ветер Видим Явления Облачность нижн/средн/верх Атм. давл. Влжн Точка росы ВНГО R Сост. почвы Tg s
Напр Скр Прв ур.ст ур.м изм
23:00 +16.6° Ю,Ю-В 3 - 10 км - облачно с прояснениями 736 761 -0.8 52% +6.6° более 2.5 км - - - -
20:00 +17.3° Ю-В 3 - 10 км - преимущественно облачно 737 762 -0.6 50% +6.8° - 0 - - -
17:00 +19.8° Ю,Ю-В 4 - 50 км - облачно 738 762 -0.8 41% +6.2° 1 км - - - -
14:00 +19.1° Ю,Ю-В 4 - 50 км - переменная облачность 739 763 -1 42% +5.8° более 2.5 км - - - -
11:00 +15° Ю 4 - 50 км - переменная облачность 740 764 -0.8 53% +5.4° - - - - -
08:00 +8.5° Ю-В 3 - 20 км - преимущественно облачно 740 766 -0.9 73% +4° 1 км 0 Влажная (без луж) - -
05:00 +7.8° В,Ю-В 3 - 10 км - облачно с прояснениями 741 767 -0.6 78% +4.2° более 2.5 км - - - -
02:00 +9° Ю-В 2 - 10 км - ясно 742 767 -0.4 75% +4.8° более 2.5 км - - - -
Воскресенье, 16 Сентября
Время местн. Темп Ветер Видим Явления Облачность нижн/средн/верх Атм. давл. Влжн Точка росы ВНГО R Сост. почвы Tg s
Напр Скр Прв ур.ст ур.м изм
23:00 +10.5° В,Ю-В 1 - 10 км - ясно 742 768 -0.2 72% +5.6° более 2.5 км - - - -
20:00 +13.3° В,Ю-В 2 - 10 км - переменная облачность 742 767 +0.2 60% +5.7° более 2.5 км 0 - - -
17:00 +17.7° штиль 0 - 50 км - переменная облачность 742 767 -0.5 38% +3.3° 1 км - - - -
14:00 +18.1° З,Ю-З 1 - 50 км - облачно с прояснениями 743 767 -0.5 42% +5° 1 км - - - -
11:00 +14.9° З,С-З 1 - 50 км - переменная облачность 743 768 +0.2 57% +6.4° 1 км - - - -
08:00 +8.6° Ю,Ю-З 1 - 10 км - переменная облачность 743 768 +0.6 85% +6.3° более 2.5 км 0 Влажная (без луж) +8° -